KVTI

Details ICAO KVTI
Name VINTON VETERANS MEM ARPK
Region United States
Timezone America/Chicago (UTC-5.0)
Plans Departing 2
Arriving 0
Stats Elevation 845 ft / 258 m (AMSL)
Location 42.219487° -92.026300°
Runways 2
Magnetic Variation 0.528° W
Sunrise 2018-05-21 10:42:56 UTC / 2018-05-21 05:42:56 Local
Sunset 2018-05-22 01:29:21 UTC / 2018-05-21 20:29:21 Local
Advertisement - Login to hide

Runways

ID Width Length Bearing (true) Bearing (mag) Surface Threshold Offset Overrun Length
09 60 ft / 18 m 4,001 ft / 1,220 m 92.51° 93.04° Concrete 0 ft / 0 m 0 ft / 0 m
16 50 ft / 15 m 2,502 ft / 763 m 160.86° 161.39° Asphalt 0 ft / 0 m 0 ft / 0 m
27 60 ft / 18 m 4,001 ft / 1,220 m 272.52° 273.05° Concrete 0 ft / 0 m 0 ft / 0 m
34 50 ft / 15 m 2,502 ft / 763 m 340.86° 341.39° Asphalt 200 ft / 61 m 0 ft / 0 m

Map

Weather


0- 5 10 15 20 25 30 35+ Temperature / ° C

Clouds and Precipitation
Forecast for 2018-05-21 18:00 UTC. Updated 4 hours ago

Ground ~20,000 ft ~40,000 ft Winds

METAR

KVTI 212115Z AUTO 00000KT 10SM OVC007 17/15 A3000 RMK AO2 T01670145

TAF

Not found

Frequencies

Recorded 120.07 MHz AWOS 3
Approach 134.05 MHz CEDAR RAPIDS APP/DEP
Unicom 122.80 MHz CTAF/UNICOM
Warning: Do not use this data for real-world aviation or navigation. No guarantee of current accuracy is given.